Terminal Aerodrome Forecast
Issued by NWS Raleigh/Durham, NC

Current Version | Previous Version | Text Only | Print | Product List | Glossary On
Versions: 1 2 3 4 5 6 7 8 9 10 11 12 13 14 15 16 17 18 19 20 21 22 23 24 25 26 27 28 29 30 31 32 33 34 35 36 37 38 39 40 41 42 43 44 45 46 47 48 49 50
000 FTUS42 KRAH 242333 TAFGSO TAF KGSO 242333Z 2500/2524 15009KT 6SM RA BR VCSH SCT015 BKN035 TEMPO 2500/2504 3SM +SHRA BKN015 BKN035 FM250600 22006KT P6SM BKN045 FM251300 23008KT P6SM SCT025 BKN040 FM251900 24012G20KT P6SM VCSH BKN040=

USA.gov is the U.S. government's official web portal to all federal, state and local government web resources and services.